Portada
METAR-TAF:

METAR-TAF

Aeroports :

Cahokia-Saint Louis, Illinois, Estats Units d'Amèrica

latitud: 38-34-15N, longitud: 090-09-22W, altitud: 126 m

Observació

L'informe es va fer fa 50 minuts, a les 10:06 UTC
Vent calma
Temperatura 9°C
Humitat 100%
Pressió 1023 hPa
Visibilitat: 4.8 km
Cel clar
boirina

METAR: KCPS 221006Z AUTO 00000KT 3SM BR CLR 09/09 A3022 RMK AO2 T00940094

Hora: 05:56 (10:56 UTC)

Pronòstic

L'informe es va fer fa 2 hores i 16 minuts, a les 08:40 UTC
Pronòstic vàlid del 22 a les 09 UTC al 23 a les 06 UTC
Vent kt del Nord
Visibilitat: 6.4 km
Escasses núvols a una alçada de 25000 ft
boirina
Temporalment
l' 22 a les 09 UTC al 22 a les 13 UTC
Visibilitat: 3.2 km
boirina
A partir de les 22 a les 1600 UTC
Vent 4 kt amb direcció variable
Visibilitat: 10 km
Núvols disperses a una alçada de 4000 ft
Cel ennuvolat a una alçada de 25000 ft

TAF: KCPS 220840Z 2209/2306 00000KT 4SM BR FEW250 TEMPO 2209/2213 2SM BR FM221600 VRB04KT P6SM SCT040 BKN250

Observacions i pronòstics meteorològics de més de 4000 aeroports (METAR i TAF).

Les estacions disponibles són els punts grocs i vermells al mapa.

Posi el ratolí al punt desitjat per veure el nom de l'estació.

Feu clic per veure les observacions i els pronòstics meteorològics.

Per canviar el mapa: feu clic els botons verds amb una creu de color negre per apropar; al botó verd amb un guió per allunyar la imatge; o en les fletxes verdes per a mapes adjacents.


METAR-TAF: